CMA CGM Sambhar — 5BND2 — position and weather

sailwx.info

Track history (hours):
 
Tides and Currents Weather Stations Pressure Air Temp Water Temp Dewpoint Dewpoint Depression Visibility Wind Speed Wind Dir Waves Ship Positions

CMA CGM Sambhar

Last reported at 2017-Nov-22 21:27 UTC. Time now 2017-Nov-22 21:44 UTC.
Position N 47°18' W 002°09'.

Length 269 m; draft 11.8 m.

Type: Cargo ship. MMSI: 210481000.

Date/timePositionNaut miles runAvg speedWind from/ knotsBaromVisibWave heightAir tempDewpointWater temp
2017-Nov-22 21:27N 47°18' W 002°09'0 0.0
2017-Nov-22 21:00N 47°18' W 002°09'0 0.0
2017-Nov-22 20:24N 47°18' W 002°09'0 0.0
2017-Nov-22 19:57N 47°18' W 002°09'0 0.0
2017-Nov-22 19:15N 47°18' W 002°09'  
2017-Nov-20 00:28N 49°27' E 000°10'0 0.0
2017-Nov-19 23:58N 49°27' E 000°10'0 0.0
2017-Nov-19 23:31N 49°27' E 000°10'1 1.7
2017-Nov-19 23:01N 49°27' E 000°09'4 7.7
2017-Nov-19 22:31N 49°29' E 000°04'612.7
2017-Nov-19 22:00N 49°31' W 000°05'4 8.8
2017-Nov-19 21:30N 49°34' W 000°11'1 1.5
2017-Nov-19 20:59N 49°35' W 000°10'0 0.1
2017-Nov-19 20:29N 49°35' W 000°10'0 0.1
2017-Nov-19 19:59N 49°35' W 000°10'0 0.1
2017-Nov-19 19:29N 49°35' W 000°10'0 0.1
2017-Nov-19 18:59N 49°35' W 000°10'0 0.1
2017-Nov-19 18:29N 49°35' W 000°10'0 0.1
2017-Nov-19 17:59N 49°35' W 000°10'0 0.1
2017-Nov-19 17:29N 49°35' W 000°10'0 0.1
2017-Nov-19 16:59N 49°35' W 000°10'0 0.0
2017-Nov-19 16:29N 49°35' W 000°10'0 0.0
2017-Nov-19 15:59N 49°35' W 000°10'0 0.0
2017-Nov-19 15:29N 49°35' W 000°10'0 0.0
2017-Nov-19 14:59N 49°35' W 000°10'0 0.0
2017-Nov-19 14:29N 49°35' W 000°10'0 0.0
2017-Nov-19 13:59N 49°35' W 000°10'0 0.0
2017-Nov-19 13:29N 49°35' W 000°10'0 0.0
2017-Nov-19 12:59N 49°35' W 000°10'0 0.2
2017-Nov-19 12:29N 49°35' W 000°10'0 0.1
2017-Nov-19 11:59N 49°35' W 000°10'0 0.2
2017-Nov-19 11:29N 49°35' W 000°10'0 0.2
2017-Nov-19 10:59N 49°35' W 000°10'0 0.1
2017-Nov-19 10:29N 49°35' W 000°10'0 0.9
2017-Nov-19 10:00N 49°35' W 000°09'510.5
2017-Nov-19 09:30N 49°40' W 000°11'510.2
2017-Nov-19 09:00N 49°45' W 000°10'510.1
2017-Nov-19 08:30N 49°50' W 000°10'510.2
2017-Nov-19 08:00N 49°55' W 000°09'5 9.8
2017-Nov-19 07:30N 50°00' W 000°07'1310.6
2017-Nov-19 06:19N 50°13' W 000°07'413.5
2017-Nov-19 06:00N 50°17' W 000°07'714.6
2017-Nov-19 05:30N 50°24' W 000°03'612.7
2017-Nov-19 05:00N 50°29' E 000°03'815.2
2017-Nov-19 04:30N 50°31' E 000°15'815.3
2017-Nov-19 04:00N 50°34' E 000°26'815.4
2017-Nov-19 03:30N 50°38' E 000°36'714.7
2017-Nov-19 03:00N 50°41' E 000°47'714.4
2017-Nov-19 02:30N 50°45' E 000°56'713.9
2017-Nov-19 02:01N 50°49' E 001°05'713.2
2017-Nov-19 01:31N 50°53' E 001°13'612.3
2017-Nov-19 01:00N 50°57' E 001°21'611.7
2017-Nov-19 00:31N 51°01' E 001°27'611.8
2017-Nov-19 00:00N 51°05' E 001°34'5 9.7
2017-Nov-18 23:31N 51°08' E 001°41'4 7.5
2017-Nov-18 23:00N 51°05' E 001°44'510.6
2017-Nov-18 22:30N 51°03' E 001°52'611.1
2017-Nov-18 22:00N 51°03' E 002°01'611.6
2017-Nov-18 21:30N 51°02' E 002°10'2 3.0
2017-Nov-18 20:58N 51°00' E 002°11'0 0.0
2017-Nov-18 20:28N 51°00' E 002°11'0 0.0
2017-Nov-18 19:52N 51°00' E 002°11'0 0.0
2017-Nov-18 19:28N 51°00' E 002°11'0 0.0
2017-Nov-18 18:37N 51°00' E 002°11'0 0.0
2017-Nov-18 18:25N 51°00' E 002°11'0 0.0
2017-Nov-18 17:37N 51°00' E 002°11'0 0.0
2017-Nov-18 17:25N 51°00' E 002°11'0 0.0
2017-Nov-18 16:55N 51°00' E 002°11'0 0.0
2017-Nov-18 15:55N 51°00' E 002°11'0 0.0
2017-Nov-18 15:13N 51°00' E 002°11'0 0.0
2017-Nov-18 14:58N 51°00' E 002°11'0 0.0
2017-Nov-18 14:28N 51°00' E 002°11'0 0.0
2017-Nov-18 13:58N 51°00' E 002°11'0 0.0
2017-Nov-18 13:19N 51°00' E 002°11'0 0.0
2017-Nov-18 12:49N 51°00' E 002°11'0 0.0
2017-Nov-18 11:04N 51°00' E 002°11'0 0.0
2017-Nov-18 10:58N 51°00' E 002°11'0 0.9
2017-Nov-18 10:29N 51°01' E 002°11'2 4.4
2017-Nov-18 10:00N 51°03' E 002°09'713.4
2017-Nov-18 09:30N 51°02' E 001°59'510.7
2017-Nov-18 09:01N 51°03' E 001°50'2 3.4
2017-Nov-18 08:30N 51°04' E 001°48'0 0.9
2017-Nov-18 08:00N 51°03' E 001°48'1 1.9
2017-Nov-18 07:31N 51°02' E 001°47'1 2.3
2017-Nov-18 07:00N 51°03' E 001°48'0 0.9
2017-Nov-18 06:30N 51°04' E 001°47'3 7.1
2017-Nov-18 06:00N 51°04' E 001°42'3 5.2
2017-Nov-18 05:31N 51°06' E 001°41'3 6.5
2017-Nov-18 05:00N 51°10' E 001°42'4 8.8
2017-Nov-18 04:30N 51°13' E 001°46'510.0
2017-Nov-18 04:00N 51°17' E 001°51'510.7
2017-Nov-18 03:30N 51°22' E 001°56'5 9.4
2017-Nov-18 03:00N 51°25' E 002°01'611.1
2017-Nov-18 02:30N 51°23' E 002°10'510.7
2017-Nov-18 02:00N 51°21' E 002°17'5 9.9
2017-Nov-18 01:30N 51°22' E 002°25'5 9.6
2017-Nov-18 00:59N 51°23' E 002°33'510.2
2017-Nov-18 00:29N 51°23' E 002°41'510.9
2017-Nov-17 23:59N 51°25' E 002°49'816.1
2017-Nov-17 23:31N 51°25' E 003°01'815.4
2017-Nov-17 23:01N 51°25' E 003°14'815.8
2017-Nov-17 22:30N 51°25' E 003°27'612.7
2017-Nov-17 22:01N 51°26' E 003°37'4 7.7
2017-Nov-17 21:30N 51°28' E 003°42'1 1.2
2017-Nov-17 20:59N 51°28' E 003°43'0 0.0
2017-Nov-17 20:29N 51°28' E 003°43'0 0.0
2017-Nov-17 19:59N 51°28' E 003°43'0 0.0
2017-Nov-17 19:29N 51°28' E 003°43'0 0.0
2017-Nov-17 18:59N 51°28' E 003°43'0 0.0
2017-Nov-17 18:29N 51°28' E 003°43'0 0.0
2017-Nov-17 17:59N 51°28' E 003°43'0 0.0
2017-Nov-17 17:29N 51°28' E 003°43'0 0.0
2017-Nov-17 16:59N 51°28' E 003°43'0 0.0
2017-Nov-17 16:29N 51°28' E 003°43'0 0.0
2017-Nov-17 15:47N 51°28' E 003°43'0 0.0
2017-Nov-17 15:29N 51°28' E 003°43'0 0.0
2017-Nov-17 14:53N 51°28' E 003°43'0 0.0
2017-Nov-17 14:29N 51°28' E 003°43'0 0.0
2017-Nov-17 13:59N 51°28' E 003°43'0 0.0
2017-Nov-17 13:23N 51°28' E 003°43'0 0.0
2017-Nov-17 12:59N 51°28' E 003°43'0 0.0
2017-Nov-17 12:29N 51°28' E 003°43'0 0.0
2017-Nov-17 11:56N 51°28' E 003°43'0 0.0
2017-Nov-17 11:29N 51°28' E 003°43'0 0.0
2017-Nov-17 10:59N 51°28' E 003°43'0 0.0
2017-Nov-17 10:29N 51°28' E 003°43'0 0.0
2017-Nov-17 09:56N 51°28' E 003°43'0 0.0
2017-Nov-17 09:29N 51°28' E 003°43'0 0.0
2017-Nov-17 08:53N 51°28' E 003°43'0 0.0
2017-Nov-17 08:26N 51°28' E 003°43'0 0.0
2017-Nov-17 07:59N 51°28' E 003°43'0 0.0
2017-Nov-17 07:23N 51°28' E 003°43'0 0.0
2017-Nov-17 06:59N 51°28' E 003°43'0 0.0
2017-Nov-17 06:26N 51°28' E 003°43'0 0.0
2017-Nov-17 05:59N 51°28' E 003°43'0 0.0
2017-Nov-17 05:29N 51°28' E 003°43'0 0.0
2017-Nov-17 04:59N 51°28' E 003°43'0 0.0
2017-Nov-17 04:29N 51°28' E 003°43'0 0.0
2017-Nov-17 03:59N 51°28' E 003°43'0 0.0
2017-Nov-17 03:26N 51°28' E 003°43'0 0.0
2017-Nov-17 02:59N 51°28' E 003°43'0 0.0
2017-Nov-17 02:29N 51°28' E 003°43'0 0.0
2017-Nov-17 01:59N 51°28' E 003°43'0 0.0
2017-Nov-17 01:29N 51°28' E 003°43'0 0.0
2017-Nov-17 00:56N 51°28' E 003°43'0 0.0
2017-Nov-17 00:23N 51°28' E 003°43'0 0.0
2017-Nov-16 23:59N 51°28' E 003°43'0 0.0
2017-Nov-16 23:29N 51°28' E 003°43'0 0.0
2017-Nov-16 22:59N 51°28' E 003°43'0 0.0
2017-Nov-16 22:29N 51°28' E 003°43'0 0.0
2017-Nov-16 21:56N 51°28' E 003°43'0 0.0
2017-Nov-16 21:29N 51°28' E 003°43'0 0.0
2017-Nov-16 20:59N 51°28' E 003°43'0 0.0
2017-Nov-16 20:29N 51°28' E 003°43'0 0.0
2017-Nov-16 19:59N 51°28' E 003°43'0 0.0
2017-Nov-16 19:29N 51°28' E 003°43'0 0.0
2017-Nov-16 18:53N 51°28' E 003°43'0 0.0
2017-Nov-16 18:29N 51°28' E 003°43'0 0.0
2017-Nov-16 17:59N 51°28' E 003°43'0 0.0
2017-Nov-16 17:29N 51°28' E 003°43'0 0.0
2017-Nov-16 16:59N 51°28' E 003°43'0 0.0
2017-Nov-16 16:29N 51°28' E 003°43'0 0.0
2017-Nov-16 15:59N 51°28' E 003°43'0 0.0
2017-Nov-16 15:29N 51°28' E 003°43'0 0.0
2017-Nov-16 14:59N 51°28' E 003°43'0 0.0
2017-Nov-16 14:29N 51°28' E 003°43'0 0.0
2017-Nov-16 13:59N 51°28' E 003°43'0 0.0
2017-Nov-16 13:29N 51°28' E 003°43'0 0.0
2017-Nov-16 12:59N 51°28' E 003°43'0 0.0
2017-Nov-16 12:29N 51°28' E 003°43'0 0.0
2017-Nov-16 11:59N 51°28' E 003°43'0 0.0
2017-Nov-16 11:26N 51°28' E 003°43'0 0.0
2017-Nov-16 10:53N 51°28' E 003°43'0 0.0
2017-Nov-16 10:29N 51°28' E 003°43'0 0.0
2017-Nov-16 09:59N 51°28' E 003°43'0 0.0
2017-Nov-16 09:17N 51°28' E 003°43'0 0.1
2017-Nov-16 09:00N 51°28' E 003°42'2 3.6
2017-Nov-16 08:30N 51°27' E 003°40'4 8.2
2017-Nov-16 08:01N 51°23' E 003°43'611.8
2017-Nov-16 07:30N 51°21' E 003°51'612.3
2017-Nov-16 07:00N 51°25' E 003°58'510.7
2017-Nov-16 06:30N 51°22' E 004°05'510.7
2017-Nov-16 06:00N 51°22' E 004°13'2 4.3
2017-Nov-16 05:31N 51°21' E 004°16'0 0.0
2017-Nov-16 04:59N 51°21' E 004°16'0 0.0
2017-Nov-16 04:30N 51°21' E 004°16'0 0.0
2017-Nov-16 04:01N 51°21' E 004°16'0 0.0
2017-Nov-16 03:30N 51°21' E 004°16'0 0.0
2017-Nov-16 03:00N 51°21' E 004°16'0 0.0
2017-Nov-16 02:31N 51°21' E 004°16'0 0.0
2017-Nov-16 01:58N 51°21' E 004°16'0 0.0
2017-Nov-16 01:31N 51°21' E 004°16'0 0.0
2017-Nov-16 00:58N 51°21' E 004°16'0 0.0
2017-Nov-16 00:29N 51°21' E 004°16'0 0.0
2017-Nov-15 23:58N 51°21' E 004°16'0 0.0
2017-Nov-15 23:28N 51°21' E 004°16'0 0.0
2017-Nov-15 23:00N 51°21' E 004°16'0 0.0
2017-Nov-15 22:31N 51°21' E 004°16'0 0.0
2017-Nov-15 22:00N 51°21' E 004°16'0 0.0
2017-Nov-15 21:30N 51°21' E 004°16'0 0.0
2017-Nov-15 20:59N 51°21' E 004°16'0 0.0
2017-Nov-15 20:31N 51°21' E 004°16'0 0.0
2017-Nov-15 20:00N 51°21' E 004°16'0 0.0
2017-Nov-15 19:31N 51°21' E 004°16'0 0.0
2017-Nov-15 18:59N 51°21' E 004°16'0 0.0
2017-Nov-15 18:31N 51°21' E 004°16'0 0.0
2017-Nov-15 18:01N 51°21' E 004°16'0 0.0
2017-Nov-15 17:31N 51°21' E 004°16'0 0.0
2017-Nov-15 17:01N 51°21' E 004°16'0 0.0
2017-Nov-15 16:31N 51°21' E 004°16'0 0.0
2017-Nov-15 15:53N 51°21' E 004°16'0 0.0
2017-Nov-15 15:31N 51°21' E 004°16'0 0.0
2017-Nov-15 15:01N 51°21' E 004°16'0 0.0
2017-Nov-15 14:28N 51°21' E 004°16'0 0.0
2017-Nov-15 14:01N 51°21' E 004°16'0 0.0
2017-Nov-15 13:31N 51°21' E 004°16'0 0.0
2017-Nov-15 12:59N 51°21' E 004°16'0 0.0
2017-Nov-15 12:31N 51°21' E 004°16'0 0.0
2017-Nov-15 12:01N 51°21' E 004°16'0 0.0
2017-Nov-15 11:31N 51°21' E 004°16'0 0.0
2017-Nov-15 11:00N 51°21' E 004°16'0 0.0
2017-Nov-15 10:30N 51°21' E 004°16'0 0.0
2017-Nov-15 10:00N 51°21' E 004°16'0 0.0
2017-Nov-15 09:30N 51°21' E 004°16'0 0.0
2017-Nov-15 08:59N 51°21' E 004°16'0 0.0
2017-Nov-15 08:29N 51°21' E 004°16'0 0.0
2017-Nov-15 08:00N 51°21' E 004°16'0 0.0
2017-Nov-15 07:30N 51°21' E 004°16'0 0.0
2017-Nov-15 06:58N 51°21' E 004°16'0 0.0
2017-Nov-15 06:31N 51°21' E 004°16'0 0.0
2017-Nov-15 05:59N 51°21' E 004°16'0 0.0
2017-Nov-15 05:29N 51°21' E 004°16'0 0.0
2017-Nov-15 05:01N 51°21' E 004°16'0 0.0
2017-Nov-15 04:31N 51°21' E 004°16'0 0.0
2017-Nov-15 04:01N 51°21' E 004°16'0 0.0
2017-Nov-15 03:28N 51°21' E 004°16'0 0.0
2017-Nov-15 03:01N 51°21' E 004°16'0 0.0
2017-Nov-15 02:29N 51°21' E 004°16'0 0.0
2017-Nov-15 02:01N 51°21' E 004°16'0 0.0
2017-Nov-15 01:30N 51°21' E 004°16'1 1.3
2017-Nov-15 01:00N 51°21' E 004°15'4 8.2
2017-Nov-15 00:31N 51°23' E 004°10'510.6
2017-Nov-15 00:00N 51°25' E 004°02'5 9.3
2017-Nov-14 23:30N 51°22' E 003°56'713.8
2017-Nov-14 23:00N 51°22' E 003°45'612.2
2017-Nov-14 22:30N 51°26' E 003°37'510.9
2017-Nov-14 22:00N 51°25' E 003°29'918.5
2017-Nov-14 21:30N 51°24' E 003°14'917.2
2017-Nov-14 21:00N 51°23' E 003°00'916.8
2017-Nov-14 20:29N 51°22' E 002°46'511.3
2017-Nov-14 20:00N 51°22' E 002°37'815.6
2017-Nov-14 19:30N 51°21' E 002°25'815.7
2017-Nov-14 19:00N 51°19' E 002°13'816.1
2017-Nov-14 18:31N 51°22' E 002°02'816.6
2017-Nov-14 18:01N 51°29' E 001°53'816.3
2017-Nov-14 17:30N 51°35' E 001°45'917.8
2017-Nov-14 17:00N 51°44' E 001°44'815.2
2017-Nov-14 16:30N 51°51' E 001°39'4 8.1
2017-Nov-14 16:00N 51°49' E 001°33'714.8
2017-Nov-14 15:30N 51°42' E 001°28'918.0
2017-Nov-14 15:00N 51°36' E 001°17'918.7
2017-Nov-14 14:30N 51°31' E 001°05'918.1
2017-Nov-14 14:00N 51°29' E 000°50'917.4
2017-Nov-14 13:30N 51°30' E 000°36'713.0
2017-Nov-14 13:01N 51°28' E 000°27'4 8.4
2017-Nov-14 12:31N 51°27' E 000°20'0 0.2
2017-Nov-14 12:01N 51°27' E 000°20'0 0.0
2017-Nov-14 11:31N 51°27' E 000°20'15 1.1
2017-Nov-13 22:14N 51°30' E 000°44'314.0
2017-Nov-13 22:01N 51°29' E 000°49'59 2.8
2017-Nov-13 01:21N 51°01' E 002°11'0 0.0
2017-Nov-13 00:57N 51°01' E 002°11'0 0.0
2017-Nov-13 00:21N 51°01' E 002°11'0 0.0
2017-Nov-13 00:00N 51°01' E 002°11'0 0.0
2017-Nov-12 23:30N 51°01' E 002°11'0 0.0
2017-Nov-12 22:21N 51°01' E 002°11'  
Track history (hours):
 
Tides and Currents Weather Stations Pressure Air Temp Water Temp Dewpoint Dewpoint Depression Visibility Wind Speed Wind Dir Waves Ship Positions

CMA CGM Sambhar

Last reported at 2017-Nov-22 21:27 UTC. Time now 2017-Nov-22 21:44 UTC.
Position N 47°18' W 002°09'.

Length 269 m; draft 11.8 m.

Type: Cargo ship. MMSI: 210481000.

Date/timePositionNaut miles runAvg speedWind from/ knotsBaromVisibWave heightAir tempDewpointWater temp
2017-Nov-22 21:27N 47°18' W 002°09'0 0.0
2017-Nov-22 21:00N 47°18' W 002°09'0 0.0
2017-Nov-22 20:24N 47°18' W 002°09'0 0.0
2017-Nov-22 19:57N 47°18' W 002°09'0 0.0
2017-Nov-22 19:15N 47°18' W 002°09'  
2017-Nov-20 00:28N 49°27' E 000°10'0 0.0
2017-Nov-19 23:58N 49°27' E 000°10'0 0.0
2017-Nov-19 23:31N 49°27' E 000°10'1 1.7
2017-Nov-19 23:01N 49°27' E 000°09'4 7.7
2017-Nov-19 22:31N 49°29' E 000°04'612.7
2017-Nov-19 22:00N 49°31' W 000°05'4 8.8
2017-Nov-19 21:30N 49°34' W 000°11'1 1.5
2017-Nov-19 20:59N 49°35' W 000°10'0 0.1
2017-Nov-19 20:29N 49°35' W 000°10'0 0.1
2017-Nov-19 19:59N 49°35' W 000°10'0 0.1
2017-Nov-19 19:29N 49°35' W 000°10'0 0.1
2017-Nov-19 18:59N 49°35' W 000°10'0 0.1
2017-Nov-19 18:29N 49°35' W 000°10'0 0.1
2017-Nov-19 17:59N 49°35' W 000°10'0 0.1
2017-Nov-19 17:29N 49°35' W 000°10'0 0.1
2017-Nov-19 16:59N 49°35' W 000°10'0 0.0
2017-Nov-19 16:29N 49°35' W 000°10'0 0.0
2017-Nov-19 15:59N 49°35' W 000°10'0 0.0
2017-Nov-19 15:29N 49°35' W 000°10'0 0.0
2017-Nov-19 14:59N 49°35' W 000°10'0 0.0
2017-Nov-19 14:29N 49°35' W 000°10'0 0.0
2017-Nov-19 13:59N 49°35' W 000°10'0 0.0
2017-Nov-19 13:29N 49°35' W 000°10'0 0.0
2017-Nov-19 12:59N 49°35' W 000°10'0 0.2
2017-Nov-19 12:29N 49°35' W 000°10'0 0.1
2017-Nov-19 11:59N 49°35' W 000°10'0 0.2
2017-Nov-19 11:29N 49°35' W 000°10'0 0.2
2017-Nov-19 10:59N 49°35' W 000°10'0 0.1
2017-Nov-19 10:29N 49°35' W 000°10'0 0.9
2017-Nov-19 10:00N 49°35' W 000°09'510.5
2017-Nov-19 09:30N 49°40' W 000°11'510.2
2017-Nov-19 09:00N 49°45' W 000°10'510.1
2017-Nov-19 08:30N 49°50' W 000°10'510.2
2017-Nov-19 08:00N 49°55' W 000°09'5 9.8
2017-Nov-19 07:30N 50°00' W 000°07'1310.6
2017-Nov-19 06:19N 50°13' W 000°07'413.5
2017-Nov-19 06:00N 50°17' W 000°07'714.6
2017-Nov-19 05:30N 50°24' W 000°03'612.7
2017-Nov-19 05:00N 50°29' E 000°03'815.2
2017-Nov-19 04:30N 50°31' E 000°15'815.3
2017-Nov-19 04:00N 50°34' E 000°26'815.4
2017-Nov-19 03:30N 50°38' E 000°36'714.7
2017-Nov-19 03:00N 50°41' E 000°47'714.4
2017-Nov-19 02:30N 50°45' E 000°56'713.9
2017-Nov-19 02:01N 50°49' E 001°05'713.2
2017-Nov-19 01:31N 50°53' E 001°13'612.3
2017-Nov-19 01:00N 50°57' E 001°21'611.7
2017-Nov-19 00:31N 51°01' E 001°27'611.8
2017-Nov-19 00:00N 51°05' E 001°34'5 9.7
2017-Nov-18 23:31N 51°08' E 001°41'4 7.5
2017-Nov-18 23:00N 51°05' E 001°44'510.6
2017-Nov-18 22:30N 51°03' E 001°52'611.1
2017-Nov-18 22:00N 51°03' E 002°01'611.6
2017-Nov-18 21:30N 51°02' E 002°10'2 3.0
2017-Nov-18 20:58N 51°00' E 002°11'0 0.0
2017-Nov-18 20:28N 51°00' E 002°11'0 0.0
2017-Nov-18 19:52N 51°00' E 002°11'0 0.0
2017-Nov-18 19:28N 51°00' E 002°11'0 0.0
2017-Nov-18 18:37N 51°00' E 002°11'0 0.0
2017-Nov-18 18:25N 51°00' E 002°11'0 0.0
2017-Nov-18 17:37N 51°00' E 002°11'0 0.0
2017-Nov-18 17:25N 51°00' E 002°11'0 0.0
2017-Nov-18 16:55N 51°00' E 002°11'0 0.0
2017-Nov-18 15:55N 51°00' E 002°11'0 0.0
2017-Nov-18 15:13N 51°00' E 002°11'0 0.0
2017-Nov-18 14:58N 51°00' E 002°11'0 0.0
2017-Nov-18 14:28N 51°00' E 002°11'0 0.0
2017-Nov-18 13:58N 51°00' E 002°11'0 0.0
2017-Nov-18 13:19N 51°00' E 002°11'0 0.0
2017-Nov-18 12:49N 51°00' E 002°11'0 0.0
2017-Nov-18 11:04N 51°00' E 002°11'0 0.0
2017-Nov-18 10:58N 51°00' E 002°11'0 0.9
2017-Nov-18 10:29N 51°01' E 002°11'2 4.4
2017-Nov-18 10:00N 51°03' E 002°09'713.4
2017-Nov-18 09:30N 51°02' E 001°59'510.7
2017-Nov-18 09:01N 51°03' E 001°50'2 3.4
2017-Nov-18 08:30N 51°04' E 001°48'0 0.9
2017-Nov-18 08:00N 51°03' E 001°48'1 1.9
2017-Nov-18 07:31N 51°02' E 001°47'1 2.3
2017-Nov-18 07:00N 51°03' E 001°48'0 0.9
2017-Nov-18 06:30N 51°04' E 001°47'3 7.1
2017-Nov-18 06:00N 51°04' E 001°42'3 5.2
2017-Nov-18 05:31N 51°06' E 001°41'3 6.5
2017-Nov-18 05:00N 51°10' E 001°42'4 8.8
2017-Nov-18 04:30N 51°13' E 001°46'510.0
2017-Nov-18 04:00N 51°17' E 001°51'510.7
2017-Nov-18 03:30N 51°22' E 001°56'5 9.4
2017-Nov-18 03:00N 51°25' E 002°01'611.1
2017-Nov-18 02:30N 51°23' E 002°10'510.7
2017-Nov-18 02:00N 51°21' E 002°17'5 9.9
2017-Nov-18 01:30N 51°22' E 002°25'5 9.6
2017-Nov-18 00:59N 51°23' E 002°33'510.2
2017-Nov-18 00:29N 51°23' E 002°41'510.9
2017-Nov-17 23:59N 51°25' E 002°49'816.1
2017-Nov-17 23:31N 51°25' E 003°01'815.4
2017-Nov-17 23:01N 51°25' E 003°14'815.8
2017-Nov-17 22:30N 51°25' E 003°27'612.7
2017-Nov-17 22:01N 51°26' E 003°37'4 7.7
2017-Nov-17 21:30N 51°28' E 003°42'1 1.2
2017-Nov-17 20:59N 51°28' E 003°43'0 0.0
2017-Nov-17 20:29N 51°28' E 003°43'0 0.0
2017-Nov-17 19:59N 51°28' E 003°43'0 0.0
2017-Nov-17 19:29N 51°28' E 003°43'0 0.0
2017-Nov-17 18:59N 51°28' E 003°43'0 0.0
2017-Nov-17 18:29N 51°28' E 003°43'0 0.0
2017-Nov-17 17:59N 51°28' E 003°43'0 0.0
2017-Nov-17 17:29N 51°28' E 003°43'0 0.0
2017-Nov-17 16:59N 51°28' E 003°43'0 0.0
2017-Nov-17 16:29N 51°28' E 003°43'0 0.0
2017-Nov-17 15:47N 51°28' E 003°43'0 0.0
2017-Nov-17 15:29N 51°28' E 003°43'0 0.0
2017-Nov-17 14:53N 51°28' E 003°43'0 0.0
2017-Nov-17 14:29N 51°28' E 003°43'0 0.0
2017-Nov-17 13:59N 51°28' E 003°43'0 0.0
2017-Nov-17 13:23N 51°28' E 003°43'0 0.0
2017-Nov-17 12:59N 51°28' E 003°43'0 0.0
2017-Nov-17 12:29N 51°28' E 003°43'0 0.0
2017-Nov-17 11:56N 51°28' E 003°43'0 0.0
2017-Nov-17 11:29N 51°28' E 003°43'0 0.0
2017-Nov-17 10:59N 51°28' E 003°43'0 0.0
2017-Nov-17 10:29N 51°28' E 003°43'0 0.0
2017-Nov-17 09:56N 51°28' E 003°43'0 0.0
2017-Nov-17 09:29N 51°28' E 003°43'0 0.0
2017-Nov-17 08:53N 51°28' E 003°43'0 0.0
2017-Nov-17 08:26N 51°28' E 003°43'0 0.0
2017-Nov-17 07:59N 51°28' E 003°43'0 0.0
2017-Nov-17 07:23N 51°28' E 003°43'0 0.0
2017-Nov-17 06:59N 51°28' E 003°43'0 0.0
2017-Nov-17 06:26N 51°28' E 003°43'0 0.0
2017-Nov-17 05:59N 51°28' E 003°43'0 0.0
2017-Nov-17 05:29N 51°28' E 003°43'0 0.0
2017-Nov-17 04:59N 51°28' E 003°43'0 0.0
2017-Nov-17 04:29N 51°28' E 003°43'0 0.0
2017-Nov-17 03:59N 51°28' E 003°43'0 0.0
2017-Nov-17 03:26N 51°28' E 003°43'0 0.0
2017-Nov-17 02:59N 51°28' E 003°43'0 0.0
2017-Nov-17 02:29N 51°28' E 003°43'0 0.0
2017-Nov-17 01:59N 51°28' E 003°43'0 0.0
2017-Nov-17 01:29N 51°28' E 003°43'0 0.0
2017-Nov-17 00:56N 51°28' E 003°43'0 0.0
2017-Nov-17 00:23N 51°28' E 003°43'0 0.0
2017-Nov-16 23:59N 51°28' E 003°43'0 0.0
2017-Nov-16 23:29N 51°28' E 003°43'0 0.0
2017-Nov-16 22:59N 51°28' E 003°43'0 0.0
2017-Nov-16 22:29N 51°28' E 003°43'0 0.0
2017-Nov-16 21:56N 51°28' E 003°43'0 0.0
2017-Nov-16 21:29N 51°28' E 003°43'0 0.0
2017-Nov-16 20:59N 51°28' E 003°43'0 0.0
2017-Nov-16 20:29N 51°28' E 003°43'0 0.0
2017-Nov-16 19:59N 51°28' E 003°43'0 0.0
2017-Nov-16 19:29N 51°28' E 003°43'0 0.0
2017-Nov-16 18:53N 51°28' E 003°43'0 0.0
2017-Nov-16 18:29N 51°28' E 003°43'0 0.0
2017-Nov-16 17:59N 51°28' E 003°43'0 0.0
2017-Nov-16 17:29N 51°28' E 003°43'0 0.0
2017-Nov-16 16:59N 51°28' E 003°43'0 0.0
2017-Nov-16 16:29N 51°28' E 003°43'0 0.0
2017-Nov-16 15:59N 51°28' E 003°43'0 0.0
2017-Nov-16 15:29N 51°28' E 003°43'0 0.0
2017-Nov-16 14:59N 51°28' E 003°43'0 0.0
2017-Nov-16 14:29N 51°28' E 003°43'0 0.0
2017-Nov-16 13:59N 51°28' E 003°43'0 0.0
2017-Nov-16 13:29N 51°28' E 003°43'0 0.0
2017-Nov-16 12:59N 51°28' E 003°43'0 0.0
2017-Nov-16 12:29N 51°28' E 003°43'0 0.0
2017-Nov-16 11:59N 51°28' E 003°43'0 0.0
2017-Nov-16 11:26N 51°28' E 003°43'0 0.0
2017-Nov-16 10:53N 51°28' E 003°43'0 0.0
2017-Nov-16 10:29N 51°28' E 003°43'0 0.0
2017-Nov-16 09:59N 51°28' E 003°43'0 0.0
2017-Nov-16 09:17N 51°28' E 003°43'0 0.1
2017-Nov-16 09:00N 51°28' E 003°42'2 3.6
2017-Nov-16 08:30N 51°27' E 003°40'4 8.2
2017-Nov-16 08:01N 51°23' E 003°43'611.8
2017-Nov-16 07:30N 51°21' E 003°51'612.3
2017-Nov-16 07:00N 51°25' E 003°58'510.7
2017-Nov-16 06:30N 51°22' E 004°05'510.7
2017-Nov-16 06:00N 51°22' E 004°13'2 4.3
2017-Nov-16 05:31N 51°21' E 004°16'0 0.0
2017-Nov-16 04:59N 51°21' E 004°16'0 0.0
2017-Nov-16 04:30N 51°21' E 004°16'0 0.0
2017-Nov-16 04:01N 51°21' E 004°16'0 0.0
2017-Nov-16 03:30N 51°21' E 004°16'0 0.0
2017-Nov-16 03:00N 51°21' E 004°16'0 0.0
2017-Nov-16 02:31N 51°21' E 004°16'0 0.0
2017-Nov-16 01:58N 51°21' E 004°16'0 0.0
2017-Nov-16 01:31N 51°21' E 004°16'0 0.0
2017-Nov-16 00:58N 51°21' E 004°16'0 0.0
2017-Nov-16 00:29N 51°21' E 004°16'0 0.0
2017-Nov-15 23:58N 51°21' E 004°16'0 0.0
2017-Nov-15 23:28N 51°21' E 004°16'0 0.0
2017-Nov-15 23:00N 51°21' E 004°16'0 0.0
2017-Nov-15 22:31N 51°21' E 004°16'0 0.0
2017-Nov-15 22:00N 51°21' E 004°16'0 0.0
2017-Nov-15 21:30N 51°21' E 004°16'0 0.0
2017-Nov-15 20:59N 51°21' E 004°16'0 0.0
2017-Nov-15 20:31N 51°21' E 004°16'0 0.0
2017-Nov-15 20:00N 51°21' E 004°16'0 0.0
2017-Nov-15 19:31N 51°21' E 004°16'0 0.0
2017-Nov-15 18:59N 51°21' E 004°16'0 0.0
2017-Nov-15 18:31N 51°21' E 004°16'0 0.0
2017-Nov-15 18:01N 51°21' E 004°16'0 0.0
2017-Nov-15 17:31N 51°21' E 004°16'0 0.0
2017-Nov-15 17:01N 51°21' E 004°16'0 0.0
2017-Nov-15 16:31N 51°21' E 004°16'0 0.0
2017-Nov-15 15:53N 51°21' E 004°16'0 0.0
2017-Nov-15 15:31N 51°21' E 004°16'0 0.0
2017-Nov-15 15:01N 51°21' E 004°16'0 0.0
2017-Nov-15 14:28N 51°21' E 004°16'0 0.0
2017-Nov-15 14:01N 51°21' E 004°16'0 0.0
2017-Nov-15 13:31N 51°21' E 004°16'0 0.0
2017-Nov-15 12:59N 51°21' E 004°16'0 0.0
2017-Nov-15 12:31N 51°21' E 004°16'0 0.0
2017-Nov-15 12:01N 51°21' E 004°16'0 0.0
2017-Nov-15 11:31N 51°21' E 004°16'0 0.0
2017-Nov-15 11:00N 51°21' E 004°16'0 0.0
2017-Nov-15 10:30N 51°21' E 004°16'0 0.0
2017-Nov-15 10:00N 51°21' E 004°16'0 0.0
2017-Nov-15 09:30N 51°21' E 004°16'0 0.0
2017-Nov-15 08:59N 51°21' E 004°16'0 0.0
2017-Nov-15 08:29N 51°21' E 004°16'0 0.0
2017-Nov-15 08:00N 51°21' E 004°16'0 0.0
2017-Nov-15 07:30N 51°21' E 004°16'0 0.0
2017-Nov-15 06:58N 51°21' E 004°16'0 0.0
2017-Nov-15 06:31N 51°21' E 004°16'0 0.0
2017-Nov-15 05:59N 51°21' E 004°16'0 0.0
2017-Nov-15 05:29N 51°21' E 004°16'0 0.0
2017-Nov-15 05:01N 51°21' E 004°16'0 0.0
2017-Nov-15 04:31N 51°21' E 004°16'0 0.0
2017-Nov-15 04:01N 51°21' E 004°16'0 0.0
2017-Nov-15 03:28N 51°21' E 004°16'0 0.0
2017-Nov-15 03:01N 51°21' E 004°16'0 0.0
2017-Nov-15 02:29N 51°21' E 004°16'0 0.0
2017-Nov-15 02:01N 51°21' E 004°16'0 0.0
2017-Nov-15 01:30N 51°21' E 004°16'1 1.3
2017-Nov-15 01:00N 51°21' E 004°15'4 8.2
2017-Nov-15 00:31N 51°23' E 004°10'510.6
2017-Nov-15 00:00N 51°25' E 004°02'5 9.3
2017-Nov-14 23:30N 51°22' E 003°56'713.8
2017-Nov-14 23:00N 51°22' E 003°45'612.2
2017-Nov-14 22:30N 51°26' E 003°37'510.9
2017-Nov-14 22:00N 51°25' E 003°29'918.5
2017-Nov-14 21:30N 51°24' E 003°14'917.2
2017-Nov-14 21:00N 51°23' E 003°00'916.8
2017-Nov-14 20:29N 51°22' E 002°46'511.3
2017-Nov-14 20:00N 51°22' E 002°37'815.6
2017-Nov-14 19:30N 51°21' E 002°25'815.7
2017-Nov-14 19:00N 51°19' E 002°13'816.1
2017-Nov-14 18:31N 51°22' E 002°02'816.6
2017-Nov-14 18:01N 51°29' E 001°53'816.3
2017-Nov-14 17:30N 51°35' E 001°45'917.8
2017-Nov-14 17:00N 51°44' E 001°44'815.2
2017-Nov-14 16:30N 51°51' E 001°39'4 8.1
2017-Nov-14 16:00N 51°49' E 001°33'714.8
2017-Nov-14 15:30N 51°42' E 001°28'918.0
2017-Nov-14 15:00N 51°36' E 001°17'918.7
2017-Nov-14 14:30N 51°31' E 001°05'918.1
2017-Nov-14 14:00N 51°29' E 000°50'917.4
2017-Nov-14 13:30N 51°30' E 000°36'713.0
2017-Nov-14 13:01N 51°28' E 000°27'4 8.4
2017-Nov-14 12:31N 51°27' E 000°20'0 0.2
2017-Nov-14 12:01N 51°27' E 000°20'0 0.0
2017-Nov-14 11:31N 51°27' E 000°20'15 1.1
2017-Nov-13 22:14N 51°30' E 000°44'314.0
2017-Nov-13 22:01N 51°29' E 000°49'59 2.8
2017-Nov-13 01:21N 51°01' E 002°11'0 0.0
2017-Nov-13 00:57N 51°01' E 002°11'0 0.0
2017-Nov-13 00:21N 51°01' E 002°11'0 0.0
2017-Nov-13 00:00N 51°01' E 002°11'0 0.0
2017-Nov-12 23:30N 51°01' E 002°11'0 0.0
2017-Nov-12 22:21N 51°01' E 002°11'  

Dump ship's entire track history